createdAt,value
2022-07-29T00:01:56.499Z,44.51
2022-07-29T00:04:24.601Z,44.05
2022-07-29T00:06:52.325Z,44.50
2022-07-29T00:09:20.014Z,44.62
2022-07-29T00:11:48.389Z,44.30
2022-07-29T00:14:16.398Z,44.64
2022-07-29T00:16:44.614Z,45.65
2022-07-29T00:19:12.718Z,45.43
2022-07-29T00:21:40.492Z,44.74
2022-07-29T00:24:08.362Z,45.50
2022-07-29T00:26:36.448Z,45.83
2022-07-29T00:31:53.370Z,45.34
2022-07-29T00:34:39.924Z,46.03
2022-07-29T00:37:08.128Z,45.69
2022-07-29T00:39:35.885Z,45.06
2022-07-29T00:42:05.723Z,46.25
2022-07-29T00:44:40.770Z,46.13
2022-07-29T00:47:09.550Z,45.35
2022-07-29T00:49:37.979Z,45.35
2022-07-29T00:52:06.496Z,45.52
2022-07-29T00:54:37.175Z,45.86
2022-07-29T00:57:13.736Z,45.37
2022-07-29T00:59:41.700Z,46.25
2022-07-29T01:02:09.503Z,45.68
2022-07-29T01:04:37.591Z,46.09
2022-07-29T01:07:05.555Z,46.09
2022-07-29T01:09:45.390Z,46.89
2022-07-29T01:12:19.318Z,46.75
2022-07-29T01:14:48.697Z,46.40
2022-07-29T01:17:53.301Z,47.25
2022-07-29T01:20:32.729Z,48.03
2022-07-29T01:23:16.030Z,47.51
2022-07-29T01:26:02.492Z,46.89
2022-07-29T01:28:59.991Z,47.48
2022-07-29T01:32:02.131Z,47.96
2022-07-29T01:34:59.095Z,47.56
2022-07-29T01:37:50.064Z,48.18
2022-07-29T01:40:28.202Z,47.83
2022-07-29T01:42:59.201Z,47.69
2022-07-29T01:45:46.180Z,47.67
2022-07-29T01:48:19.190Z,47.79
2022-07-29T01:51:02.989Z,46.60
2022-07-29T01:53:38.045Z,46.87
2022-07-29T01:56:09.526Z,47.52
2022-07-29T01:58:41.317Z,47.11
2022-07-29T02:01:11.248Z,46.83
2022-07-29T02:03:40.207Z,47.37
2022-07-29T02:06:10.469Z,46.54
2022-07-29T02:08:40.006Z,46.97
2022-07-29T02:11:09.501Z,47.48
2022-07-29T02:13:38.819Z,47.43
2022-07-29T02:16:09.630Z,47.35
2022-07-29T02:18:40.193Z,47.73
2022-07-29T02:21:15.192Z,47.03
2022-07-29T02:23:50.647Z,46.96
2022-07-29T02:26:21.455Z,46.93
2022-07-29T02:28:52.934Z,47.26
2022-07-29T02:31:24.130Z,47.30
2022-07-29T02:33:53.956Z,47.86
2022-07-29T02:36:24.163Z,47.83
2022-07-29T02:38:52.697Z,48.64
2022-07-29T02:41:41.331Z,48.44
2022-07-29T02:44:21.699Z,49.02
2022-07-29T02:46:54.744Z,49.17
2022-07-29T02:49:22.749Z,49.11
2022-07-29T02:52:03.718Z,48.59
2022-07-29T02:54:47.073Z,49.05
2022-07-29T02:57:53.893Z,49.31
2022-07-29T03:00:28.438Z,49.38
2022-07-29T03:02:59.737Z,49.26
2022-07-29T03:05:28.508Z,49.75
2022-07-29T03:08:01.505Z,49.34
2022-07-29T03:10:30.512Z,49.38
2022-07-29T03:12:59.555Z,49.68
2022-07-29T03:15:28.858Z,50.54
2022-07-29T03:17:57.674Z,50.16
2022-07-29T03:20:25.728Z,50.09
2022-07-29T03:22:53.492Z,49.47
2022-07-29T03:25:21.686Z,50.91
2022-07-29T03:27:49.662Z,50.41
2022-07-29T03:30:21.583Z,50.25
2022-07-29T03:32:52.464Z,50.99
2022-07-29T03:35:21.635Z,51.44
2022-07-29T03:37:50.155Z,51.87
2022-07-29T03:40:27.091Z,51.59
2022-07-29T03:42:56.682Z,51.78
2022-07-29T03:45:26.511Z,52.24
2022-07-29T03:48:01.274Z,51.32
2022-07-29T03:50:32.040Z,51.30
2022-07-29T03:53:00.223Z,52.16
2022-07-29T03:55:31.892Z,52.75
2022-07-29T03:58:01.744Z,51.97
2022-07-29T04:00:30.265Z,52.40
2022-07-29T04:02:58.772Z,52.92
2022-07-29T04:05:26.599Z,52.13
2022-07-29T04:07:54.249Z,52.65
2022-07-29T04:10:30.176Z,53.78
2022-07-29T04:13:00.450Z,51.69
2022-07-29T04:15:31.556Z,52.28
2022-07-29T04:18:00.484Z,50.94
2022-07-29T04:20:28.739Z,50.95
2022-07-29T04:22:56.492Z,50.10
2022-07-29T04:25:24.254Z,49.97
2022-07-29T04:28:01.996Z,50.64
2022-07-29T04:30:31.415Z,51.14
2022-07-29T04:32:59.942Z,50.81
2022-07-29T04:35:28.424Z,51.63
2022-07-29T04:37:56.136Z,51.21
2022-07-29T04:40:24.333Z,52.62
2022-07-29T04:42:52.107Z,51.31
2022-07-29T04:45:22.769Z,51.20
2022-07-29T04:47:51.277Z,52.74
2022-07-29T04:50:19.139Z,52.02
2022-07-29T04:52:46.880Z,51.89
2022-07-29T04:55:15.105Z,51.54
2022-07-29T04:57:42.853Z,51.25
2022-07-29T05:00:11.084Z,51.62
2022-07-29T05:02:39.390Z,51.73
2022-07-29T05:05:07.810Z,51.81
2022-07-29T05:07:36.032Z,51.42
2022-07-29T05:10:04.630Z,50.93
2022-07-29T05:12:32.538Z,51.28
2022-07-29T05:15:00.804Z,51.33
2022-07-29T05:17:28.975Z,51.24
2022-07-29T05:19:56.880Z,51.48
2022-07-29T05:22:26.418Z,50.92
2022-07-29T05:24:54.383Z,51.41
2022-07-29T05:27:22.052Z,51.13
2022-07-29T05:29:49.752Z,49.82
2022-07-29T05:32:18.729Z,49.95
2022-07-29T05:34:50.845Z,50.28
2022-07-29T05:37:20.769Z,49.56
2022-07-29T05:39:56.217Z,49.19
2022-07-29T05:42:26.004Z,50.34
2022-07-29T05:44:56.562Z,49.91
2022-07-29T05:47:25.001Z,49.49
2022-07-29T05:49:53.239Z,49.88
2022-07-29T05:52:22.278Z,49.21
2022-07-29T05:54:50.282Z,48.91
2022-07-29T05:57:24.868Z,49.04
2022-07-29T05:59:52.871Z,49.62
2022-07-29T06:02:20.989Z,49.46
2022-07-29T06:04:49.775Z,49.00
2022-07-29T06:07:17.713Z,48.56
2022-07-29T06:09:45.963Z,49.48
2022-07-29T06:12:14.104Z,48.74
2022-07-29T06:14:41.774Z,47.41
2022-07-29T06:17:09.577Z,46.99
2022-07-29T06:19:37.594Z,45.92
2022-07-29T06:22:05.265Z,45.37
2022-07-29T06:24:32.962Z,44.95
2022-07-29T06:27:00.998Z,44.97
2022-07-29T06:29:28.767Z,44.38
2022-07-29T06:31:56.501Z,44.79
2022-07-29T06:34:24.802Z,44.38
2022-07-29T06:36:53.783Z,45.61
2022-07-29T06:39:22.400Z,44.36
2022-07-29T06:41:51.646Z,43.66
2022-07-29T06:44:21.897Z,43.08
2022-07-29T06:46:52.587Z,43.13
2022-07-29T06:49:20.599Z,43.03
2022-07-29T06:51:48.443Z,43.05
2022-07-29T06:54:16.732Z,43.28
2022-07-29T06:56:44.896Z,43.08
2022-07-29T06:59:13.642Z,44.26
2022-07-29T07:01:44.416Z,43.81
2022-07-29T07:04:13.166Z,44.74
2022-07-29T07:06:41.562Z,44.61
2022-07-29T07:09:09.214Z,45.13
2022-07-29T07:11:36.856Z,46.34
2022-07-29T07:14:04.933Z,45.16
2022-07-29T07:16:33.370Z,46.96
2022-07-29T07:19:04.762Z,45.86
2022-07-29T07:21:33.940Z,45.51
2022-07-29T07:24:01.740Z,45.45
2022-07-29T07:26:29.795Z,45.40
2022-07-29T07:28:58.131Z,44.93
2022-07-29T07:31:26.230Z,44.23
2022-07-29T07:33:54.688Z,44.00
2022-07-29T07:36:22.977Z,43.75
2022-07-29T07:38:51.246Z,44.46
2022-07-29T07:41:19.465Z,44.15
2022-07-29T07:43:47.450Z,43.32
2022-07-29T07:46:15.667Z,43.17
2022-07-29T07:48:43.775Z,43.76
2022-07-29T07:51:11.608Z,44.43
2022-07-29T07:53:39.265Z,43.29
2022-07-29T07:56:10.539Z,43.07
2022-07-29T07:58:39.767Z,43.82
2022-07-29T08:01:08.903Z,43.44
2022-07-29T08:03:37.262Z,42.91
2022-07-29T08:06:05.616Z,44.20
2022-07-29T08:08:33.441Z,42.59
2022-07-29T08:11:06.902Z,42.07
2022-07-29T08:13:37.403Z,43.61
2022-07-29T08:16:16.645Z,42.70
2022-07-29T08:18:46.411Z,43.87
2022-07-29T08:21:15.644Z,43.11
2022-07-29T08:23:59.740Z,42.57
2022-07-29T08:26:29.848Z,41.77
2022-07-29T08:28:57.540Z,41.08
2022-07-29T08:31:25.315Z,41.61
2022-07-29T08:33:53.405Z,41.76
2022-07-29T08:36:22.069Z,40.64
2022-07-29T08:38:50.673Z,41.18
2022-07-29T08:41:20.609Z,41.36
2022-07-29T08:43:49.794Z,42.49
2022-07-29T08:46:20.903Z,42.11
2022-07-29T08:48:49.125Z,43.23
2022-07-29T08:51:20.069Z,42.40
2022-07-29T08:53:49.873Z,43.75
2022-07-29T08:56:20.189Z,44.64
2022-07-29T08:58:52.355Z,44.33
2022-07-29T09:01:36.064Z,44.91
2022-07-29T09:04:12.851Z,43.50
2022-07-29T09:06:44.952Z,44.79
2022-07-29T09:09:14.651Z,46.04
2022-07-29T09:11:43.388Z,48.15
2022-07-29T09:14:14.455Z,47.71
2022-07-29T09:16:53.229Z,47.67
2022-07-29T09:19:24.399Z,47.56
2022-07-29T09:21:59.586Z,47.43
2022-07-29T09:24:47.051Z,47.74
2022-07-29T09:27:27.323Z,47.70
2022-07-29T09:30:07.440Z,48.22
2022-07-29T09:32:55.437Z,47.17
2022-07-29T09:35:25.610Z,46.49
2022-07-29T09:37:54.546Z,47.00
2022-07-29T09:40:25.639Z,49.30
2022-07-29T09:42:57.972Z,48.88
2022-07-29T09:45:33.939Z,47.31
2022-07-29T09:48:18.317Z,50.24
2022-07-29T09:50:47.993Z,48.30
2022-07-29T09:53:32.861Z,48.76
2022-07-29T09:56:00.761Z,46.30
2022-07-29T09:58:28.949Z,46.23
2022-07-29T10:00:57.665Z,46.89
2022-07-29T10:03:26.596Z,44.01
2022-07-29T10:06:11.688Z,41.81
2022-07-29T10:08:39.836Z,47.03
2022-07-29T10:11:16.553Z,45.52
2022-07-29T10:13:46.453Z,44.42
2022-07-29T10:16:16.199Z,42.70
2022-07-29T10:18:47.953Z,40.05
2022-07-29T10:21:22.539Z,39.30
2022-07-29T10:24:05.929Z,39.08
2022-07-29T10:26:33.746Z,40.04
2022-07-29T10:29:01.761Z,39.88
2022-07-29T10:31:49.435Z,39.88
2022-07-29T10:34:35.699Z,39.04
2022-07-29T10:37:29.592Z,39.58
2022-07-29T10:40:50.484Z,37.27
2022-07-29T10:43:29.892Z,39.46
2022-07-29T10:46:01.517Z,37.64
2022-07-29T10:48:30.239Z,37.58
2022-07-29T10:51:06.876Z,39.13
2022-07-29T10:53:52.281Z,38.16
2022-07-29T10:56:34.407Z,38.50
2022-07-29T10:59:22.955Z,37.68
2022-07-29T11:01:54.268Z,37.87
2022-07-29T11:04:45.625Z,34.89
2022-07-29T11:07:17.487Z,35.18
2022-07-29T11:10:05.616Z,33.58
2022-07-29T11:12:39.793Z,33.13
2022-07-29T11:15:19.915Z,34.79
2022-07-29T11:17:59.470Z,33.44
2022-07-29T11:20:49.838Z,34.39
2022-07-29T11:23:36.806Z,34.30
2022-07-29T11:26:27.512Z,34.38
2022-07-29T11:29:18.921Z,34.72
2022-07-29T11:31:51.715Z,34.62
2022-07-29T11:34:33.308Z,34.10
2022-07-29T11:37:14.894Z,34.64
2022-07-29T11:40:03.977Z,34.75
2022-07-29T11:42:34.522Z,34.62
2022-07-29T11:45:43.551Z,34.54
2022-07-29T11:48:28.030Z,33.26
2022-07-29T11:50:48.671Z,33.43
2022-07-29T11:53:17.295Z,33.44
2022-07-29T11:55:51.316Z,32.14
2022-07-29T11:58:25.220Z,31.94
2022-07-29T12:00:55.536Z,32.66
2022-07-29T12:03:34.858Z,31.49
2022-07-29T12:06:15.102Z,31.11
2022-07-29T12:08:44.770Z,31.38
2022-07-29T12:11:17.904Z,31.31
2022-07-29T12:13:49.918Z,31.35
2022-07-29T12:16:25.867Z,31.22
2022-07-29T12:19:02.588Z,30.90
2022-07-29T12:21:56.784Z,30.47
2022-07-29T12:24:27.856Z,30.61
2022-07-29T12:26:56.876Z,29.39
2022-07-29T12:29:34.814Z,30.48
2022-07-29T12:32:14.703Z,30.65
2022-07-29T12:34:47.183Z,29.95
2022-07-29T12:37:15.382Z,30.31
2022-07-29T12:39:43.354Z,30.89
2022-07-29T12:42:18.741Z,30.57
2022-07-29T12:44:49.333Z,29.52
2022-07-29T12:47:19.203Z,30.49
2022-07-29T12:49:48.885Z,30.03
2022-07-29T12:52:34.972Z,30.08
2022-07-29T12:55:03.972Z,29.99
2022-07-29T12:57:32.684Z,30.34
2022-07-29T13:00:14.637Z,30.38
2022-07-29T13:02:44.669Z,30.67
2022-07-29T13:05:13.823Z,30.41
2022-07-29T13:07:55.449Z,30.16
2022-07-29T13:10:30.426Z,30.52
2022-07-29T13:13:09.813Z,30.65
2022-07-29T13:15:45.228Z,30.60
2022-07-29T13:18:33.667Z,29.96
2022-07-29T13:21:16.124Z,30.74
2022-07-29T13:23:44.274Z,29.77
2022-07-29T13:26:12.986Z,30.11
2022-07-29T13:28:41.063Z,30.55
2022-07-29T13:31:12.476Z,29.48
2022-07-29T13:33:42.037Z,30.05
2022-07-29T13:36:09.747Z,29.70
2022-07-29T13:38:37.761Z,29.84
2022-07-29T13:41:05.676Z,29.33
2022-07-29T13:43:33.775Z,28.44
2022-07-29T13:46:01.934Z,27.96
2022-07-29T13:48:29.857Z,28.01
2022-07-29T13:50:57.785Z,27.72
2022-07-29T13:53:27.227Z,27.78
2022-07-29T13:55:56.287Z,28.50
2022-07-29T13:58:24.188Z,28.16
2022-07-29T14:00:52.496Z,28.43
2022-07-29T14:03:20.687Z,28.53
2022-07-29T14:05:48.370Z,28.52
2022-07-29T14:08:16.250Z,28.39
2022-07-29T14:10:44.323Z,29.09
2022-07-29T14:13:24.579Z,28.94
2022-07-29T14:15:53.993Z,28.18
2022-07-29T14:18:21.765Z,27.30
2022-07-29T14:20:49.483Z,27.76
2022-07-29T14:23:18.089Z,28.99
2022-07-29T14:25:49.471Z,28.40
2022-07-29T14:28:17.931Z,28.68
2022-07-29T14:30:45.674Z,28.62
2022-07-29T14:33:13.807Z,28.58
2022-07-29T14:35:42.061Z,29.86
2022-07-29T14:38:09.812Z,29.29
2022-07-29T14:40:37.535Z,28.94
2022-07-29T14:43:05.559Z,29.60
2022-07-29T14:45:33.275Z,30.75
2022-07-29T14:48:01.405Z,30.89
2022-07-29T14:50:32.043Z,31.13
2022-07-29T14:53:01.182Z,31.33
2022-07-29T14:55:29.363Z,31.06
2022-07-29T14:58:07.781Z,31.18
2022-07-29T15:00:38.743Z,31.82
2022-07-29T15:03:07.036Z,32.47
2022-07-29T15:05:40.034Z,32.16
2022-07-29T15:08:09.149Z,32.36
2022-07-29T15:10:40.211Z,32.36
2022-07-29T15:13:07.909Z,32.55
2022-07-29T15:15:35.633Z,32.31
2022-07-29T15:18:04.350Z,31.67
2022-07-29T15:20:32.072Z,32.25
2022-07-29T15:22:59.795Z,32.08
2022-07-29T15:25:28.172Z,31.43
2022-07-29T15:28:01.349Z,32.34
2022-07-29T15:30:32.930Z,31.69
2022-07-29T15:33:03.955Z,31.53
2022-07-29T15:35:32.745Z,32.50
2022-07-29T15:38:00.473Z,32.73
2022-07-29T15:40:28.533Z,32.72
2022-07-29T15:42:56.655Z,32.80
2022-07-29T15:45:24.540Z,32.99
2022-07-29T15:47:52.228Z,32.73
2022-07-29T15:50:21.328Z,32.72
2022-07-29T15:52:49.052Z,33.24
2022-07-29T15:55:16.748Z,33.69
2022-07-29T15:57:44.807Z,33.83
2022-07-29T16:00:13.687Z,34.06
2022-07-29T16:02:41.738Z,33.44
2022-07-29T16:05:09.707Z,33.57
2022-07-29T16:07:37.894Z,33.55
2022-07-29T16:10:07.988Z,33.47
2022-07-29T16:12:35.657Z,33.36
2022-07-29T16:15:09.514Z,32.97
2022-07-29T16:17:38.953Z,32.53
2022-07-29T16:20:07.297Z,32.59
2022-07-29T16:22:35.570Z,32.43
2022-07-29T16:25:03.831Z,31.85
2022-07-29T16:27:37.886Z,32.50
2022-07-29T16:30:09.799Z,32.30
2022-07-29T16:32:37.734Z,32.70
2022-07-29T16:35:06.426Z,31.47
2022-07-29T16:37:36.653Z,31.53
2022-07-29T16:40:05.321Z,31.76
2022-07-29T16:42:48.926Z,31.91
2022-07-29T16:45:18.165Z,32.48
2022-07-29T16:48:00.059Z,32.78
2022-07-29T16:50:29.519Z,32.80
2022-07-29T16:52:58.056Z,32.86
2022-07-29T16:55:25.996Z,33.54
2022-07-29T16:57:54.041Z,34.05
2022-07-29T17:00:22.664Z,34.33
2022-07-29T17:02:51.178Z,35.17
2022-07-29T17:05:19.187Z,34.23
2022-07-29T17:07:47.591Z,35.99
2022-07-29T17:10:15.336Z,35.42
2022-07-29T17:12:43.385Z,35.49
2022-07-29T17:15:12.189Z,35.67
2022-07-29T17:17:55.117Z,36.32
2022-07-29T17:20:26.677Z,35.95
2022-07-29T17:22:54.887Z,36.31
2022-07-29T17:25:24.361Z,36.46
2022-07-29T17:27:53.723Z,38.12
2022-07-29T17:30:23.055Z,38.67
2022-07-29T17:32:51.057Z,40.25
2022-07-29T17:35:37.220Z,40.37
2022-07-29T17:38:05.319Z,40.78
2022-07-29T17:40:33.039Z,40.43
2022-07-29T17:43:00.782Z,40.34
2022-07-29T17:45:48.907Z,39.83
2022-07-29T17:48:16.779Z,40.33
2022-07-29T17:50:45.638Z,40.42
2022-07-29T17:53:15.875Z,40.17
2022-07-29T17:55:51.161Z,40.32
2022-07-29T17:58:19.433Z,40.52
2022-07-29T18:00:47.803Z,40.33
2022-07-29T18:03:16.006Z,40.04
2022-07-29T18:05:44.325Z,41.06
2022-07-29T18:08:12.490Z,41.19
2022-07-29T18:10:41.437Z,40.96
2022-07-29T18:13:10.109Z,41.66
2022-07-29T18:15:37.841Z,40.99
2022-07-29T18:18:06.497Z,40.01
2022-07-29T18:20:34.355Z,39.98
2022-07-29T18:23:02.041Z,39.69
2022-07-29T18:25:30.275Z,41.00
2022-07-29T18:28:00.546Z,41.17
2022-07-29T18:30:29.820Z,40.72
2022-07-29T18:35:49.956Z,42.71
2022-07-29T18:38:18.081Z,41.22
2022-07-29T18:40:46.177Z,42.32
2022-07-29T18:43:14.221Z,43.77
2022-07-29T18:45:42.642Z,43.41
2022-07-29T18:48:13.128Z,42.15
2022-07-29T18:50:42.483Z,41.95
2022-07-29T18:53:10.561Z,42.00
2022-07-29T18:55:38.226Z,42.90
2022-07-29T18:58:05.919Z,42.39
2022-07-29T19:00:33.919Z,42.89
2022-07-29T19:03:03.428Z,43.03
2022-07-29T19:05:31.437Z,42.39
2022-07-29T19:07:59.795Z,42.18
2022-07-29T19:10:27.604Z,42.21
2022-07-29T19:12:56.859Z,42.60
2022-07-29T19:15:25.203Z,42.31
2022-07-29T19:17:54.757Z,42.28
2022-07-29T19:20:25.904Z,42.63
2022-07-29T19:22:53.564Z,43.06
2022-07-29T19:25:23.066Z,43.13
2022-07-29T19:27:51.116Z,43.26
2022-07-29T19:30:19.150Z,43.73
2022-07-29T19:32:46.897Z,44.65
2022-07-29T19:35:35.474Z,43.49
2022-07-29T19:38:03.212Z,44.76
2022-07-29T19:40:31.708Z,44.51
2022-07-29T19:43:00.713Z,43.93
2022-07-29T19:45:29.212Z,43.87
2022-07-29T19:48:01.242Z,43.59
2022-07-29T19:50:30.119Z,45.52
2022-07-29T19:52:58.714Z,45.31
2022-07-29T19:55:27.391Z,44.03
2022-07-29T19:57:55.749Z,43.99
2022-07-29T20:00:24.287Z,44.32
2022-07-29T20:02:52.810Z,45.47
2022-07-29T20:05:20.552Z,44.65
2022-07-29T20:07:48.520Z,44.32
2022-07-29T20:10:16.744Z,44.71
2022-07-29T20:12:44.484Z,44.62
2022-07-29T20:15:16.567Z,43.55
2022-07-29T20:17:44.915Z,43.96
2022-07-29T20:20:13.018Z,44.62
2022-07-29T20:22:40.734Z,44.14
2022-07-29T20:25:10.016Z,45.10
2022-07-29T20:27:40.539Z,45.13
2022-07-29T20:30:09.276Z,44.43
2022-07-29T20:32:40.780Z,44.63
2022-07-29T20:35:13.518Z,43.83
2022-07-29T20:37:52.449Z,44.60
2022-07-29T20:40:25.825Z,45.15
2022-07-29T20:42:55.073Z,44.66
2022-07-29T20:45:23.771Z,44.87
2022-07-29T20:47:52.359Z,45.09
2022-07-29T20:50:23.865Z,45.90
2022-07-29T20:52:53.117Z,44.93
2022-07-29T20:55:21.164Z,44.76
2022-07-29T20:57:55.240Z,45.33
2022-07-29T21:00:23.413Z,45.94
2022-07-29T21:02:51.703Z,46.29
2022-07-29T21:05:19.544Z,47.04
2022-07-29T21:07:47.778Z,46.95
2022-07-29T21:10:18.315Z,46.56
2022-07-29T21:12:46.668Z,47.05
2022-07-29T21:15:15.178Z,46.96
2022-07-29T21:17:48.835Z,47.38
2022-07-29T21:20:18.525Z,46.39
2022-07-29T21:22:46.208Z,46.49
2022-07-29T21:25:13.966Z,45.72
2022-07-29T21:28:00.789Z,45.56
2022-07-29T21:30:28.492Z,45.82
2022-07-29T21:32:56.618Z,45.07
2022-07-29T21:36:01.719Z,45.28
2022-07-29T21:38:12.715Z,45.12
2022-07-29T21:40:40.430Z,44.99
2022-07-29T21:43:11.946Z,44.80
2022-07-29T21:45:40.389Z,44.84
2022-07-29T21:48:08.304Z,46.56
2022-07-29T21:50:36.233Z,46.46
2022-07-29T21:53:04.386Z,46.87
2022-07-29T21:55:33.819Z,45.49
2022-07-29T21:58:01.531Z,45.47
2022-07-29T22:00:49.220Z,46.45
2022-07-29T22:03:35.347Z,45.91
2022-07-29T22:06:03.057Z,45.83
2022-07-29T22:08:30.775Z,46.06
2022-07-29T22:10:58.863Z,46.67
2022-07-29T22:13:26.728Z,46.05
2022-07-29T22:15:54.409Z,46.97
2022-07-29T22:18:22.613Z,47.33
2022-07-29T22:20:50.474Z,46.96
2022-07-29T22:23:18.307Z,46.74
2022-07-29T22:25:46.262Z,47.87
2022-07-29T22:28:13.987Z,47.74
2022-07-29T22:30:41.908Z,47.58
2022-07-29T22:33:09.936Z,47.24
2022-07-29T22:35:48.815Z,47.00
2022-07-29T22:38:18.530Z,47.74
2022-07-29T22:40:47.019Z,47.09
2022-07-29T22:43:16.714Z,48.17
2022-07-29T22:45:44.773Z,48.07
2022-07-29T22:48:12.729Z,47.79
2022-07-29T22:50:40.494Z,48.30
2022-07-29T22:53:08.514Z,49.57
2022-07-29T22:55:36.203Z,47.94
2022-07-29T22:58:03.859Z,47.24
2022-07-29T23:00:31.941Z,47.07
2022-07-29T23:02:59.576Z,48.24
2022-07-29T23:05:27.245Z,47.90
2022-07-29T23:07:55.285Z,47.95
2022-07-29T23:10:23.048Z,49.64
2022-07-29T23:12:50.694Z,48.96
2022-07-29T23:15:18.729Z,48.61
2022-07-29T23:17:47.317Z,50.02
2022-07-29T23:20:15.102Z,48.87
2022-07-29T23:22:43.174Z,48.34
2022-07-29T23:25:10.879Z,47.89
2022-07-29T23:27:38.569Z,49.37
2022-07-29T23:30:07.080Z,48.67
2022-07-29T23:32:35.059Z,48.79
2022-07-29T23:35:02.879Z,48.85
2022-07-29T23:37:31.100Z,49.16
2022-07-29T23:39:58.812Z,48.48
2022-07-29T23:42:26.580Z,48.63
2022-07-29T23:44:54.593Z,48.30
2022-07-29T23:47:22.315Z,49.37
2022-07-29T23:49:50.305Z,51.35
2022-07-29T23:52:18.556Z,50.20
2022-07-29T23:54:46.469Z,50.37
2022-07-29T23:57:14.518Z,50.23
2022-07-29T23:59:42.577Z,52.62
